Time;durP1;ratioP1;P1;durP2;ratioP2;P2;SDS_P1;SDS_P2;PMS_P1;PMS_P2;Temp;Humidity;BMP_temperature;BMP_pressure;BME280_temperature;BME280_humidity;BME280_pressure;Samples;Min_cycle;Max_cycle;Signal;HPM_P1;HPM_P2
2024/01/15 00:01:06;;;;;;;13.00;11.10;;;;;;;0.66;100.00;98639.52;86936;265;135745;-70
2024/01/15 00:03:09;;;;;;;14.20;11.60;;;;;;;0.64;100.00;98636.95;87311;272;23767;-72
2024/01/15 00:05:12;;;;;;;12.90;11.30;;;;;;;0.76;100.00;98633.16;87343;279;136505;-71
2024/01/15 00:07:14;;;;;;;14.80;11.10;;;;;;;0.81;100.00;98628.92;87228;271;22637;-71
2024/01/15 00:09:16;;;;;;;12.70;10.90;;;;;;;0.85;100.00;98632.16;87014;271;136742;-72
2024/01/15 00:11:18;;;;;;;12.60;10.80;;;;;;;0.88;100.00;98635.36;87235;272;22654;-72
2024/01/15 00:13:20;;;;;;;13.10;11.70;;;;;;;0.87;100.00;98634.79;87025;275;135011;-70
2024/01/15 00:15:22;;;;;;;16.40;12.00;;;;;;;0.87;100.00;98636.35;87102;280;23529;-69
2024/01/15 00:17:24;;;;;;;13.00;10.20;;;;;;;0.95;100.00;98635.06;87178;279;136093;-70
2024/01/15 00:19:27;;;;;;;12.80;11.00;;;;;;;0.86;100.00;98629.44;87110;271;25226;-70
2024/01/15 00:21:29;;;;;;;12.90;10.50;;;;;;;0.90;100.00;98633.03;87374;278;136756;-71
2024/01/15 00:23:31;;;;;;;12.70;10.10;;;;;;;0.95;100.00;98633.75;87094;271;25595;-70
2024/01/15 00:25:33;;;;;;;13.50;9.70;;;;;;;0.97;100.00;98636.39;86944;271;138391;-69
2024/01/15 00:27:35;;;;;;;12.80;10.60;;;;;;;0.99;100.00;98640.00;86999;278;22529;-70
2024/01/15 00:29:37;;;;;;;12.20;10.20;;;;;;;0.97;100.00;98639.73;87403;267;136449;-74
2024/01/15 00:31:41;;;;;;;11.90;10.40;;;;;;;0.96;100.00;98640.42;87039;273;23404;-72
2024/01/15 00:33:44;;;;;;;11.70;9.80;;;;;;;0.88;100.00;98641.70;86907;271;136504;-70
2024/01/15 00:35:46;;;;;;;13.10;11.50;;;;;;;0.86;100.00;98644.48;87339;263;22668;-69
2024/01/15 00:37:48;;;;;;;10.60;9.50;;;;;;;0.76;100.00;98641.56;86949;271;138198;-75
2024/01/15 00:39:50;;;;;;;12.40;9.20;;;;;;;0.72;100.00;98647.38;87243;272;23741;-74
2024/01/15 00:41:52;;;;;;;13.50;10.60;;;;;;;0.80;100.00;98643.88;87127;264;136964;-70
2024/01/15 00:43:53;;;;;;;10.40;8.90;;;;;;;0.82;100.00;98640.04;87314;271;25206;-69
2024/01/15 00:45:55;;;;;;;11.40;9.90;;;;;;;0.92;100.00;98638.25;87124;279;137243;-71
2024/01/15 00:48:00;;;;;;;11.10;9.80;;;;;;;0.96;100.00;98632.38;87233;275;22798;-69
2024/01/15 00:50:04;;;;;;;13.30;11.40;;;;;;;0.91;100.00;98633.83;87360;271;135909;-72
2024/01/15 00:52:07;;;;;;;12.60;10.20;;;;;;;0.84;100.00;98634.55;87170;275;136469;-71
2024/01/15 00:54:09;;;;;;;11.80;10.10;;;;;;;0.80;100.00;98633.11;87129;272;22571;-72
2024/01/15 00:56:11;;;;;;;12.30;10.60;;;;;;;0.77;100.00;98634.11;87154;275;136555;-71
2024/01/15 00:58:13;;;;;;;12.00;9.80;;;;;;;0.76;100.00;98634.70;87239;279;25119;-69
2024/01/15 01:00:15;;;;;;;13.60;10.30;;;;;;;0.86;100.00;98626.67;87706;275;136589;-71
2024/01/15 01:02:19;;;;;;;12.00;9.40;;;;;;;0.94;100.00;98623.77;87427;279;22563;-69
2024/01/15 01:04:21;;;;;;;10.00;8.90;;;;;;;0.96;100.00;98623.56;87277;271;136926;-70
2024/01/15 01:06:23;;;;;;;11.00;9.80;;;;;;;0.96;100.00;98629.42;87152;279;22619;-69
2024/01/15 01:08:25;;;;;;;11.00;9.70;;;;;;;0.92;100.00;98630.73;87240;279;136223;-70
2024/01/15 01:10:27;;;;;;;15.40;10.80;;;;;;;0.91;100.00;98627.98;87240;279;23041;-70
2024/01/15 01:12:30;;;;;;;11.70;10.40;;;;;;;0.84;100.00;98627.94;87390;268;137283;-70
2024/01/15 01:14:32;;;;;;;10.40;9.30;;;;;;;0.76;100.00;98626.28;87168;272;22561;-69
2024/01/15 01:16:38;;;;;;;9.60;8.50;;;;;;;0.78;100.00;98627.04;87004;280;136510;-70
2024/01/15 01:18:41;;;;;;;11.80;8.80;;;;;;;0.84;100.00;98624.36;87649;274;23755;-69
2024/01/15 01:20:43;;;;;;;11.00;9.40;;;;;;;0.84;100.00;98623.70;87134;279;136697;-71
2024/01/15 01:22:45;;;;;;;10.90;8.20;;;;;;;0.79;100.00;98628.27;87293;279;22641;-69
2024/01/15 01:24:47;;;;;;;9.50;8.50;;;;;;;0.74;100.00;98627.23;87213;267;136101;-70
2024/01/15 01:26:49;;;;;;;11.70;9.60;;;;;;;0.71;100.00;98629.91;87267;271;22588;-71
2024/01/15 01:28:51;;;;;;;11.60;10.20;;;;;;;0.66;100.00;98626.88;87005;280;135957;-69
2024/01/15 01:30:53;;;;;;;12.00;9.80;;;;;;;0.62;100.00;98626.31;87272;279;24056;-69
2024/01/15 01:32:55;;;;;;;13.60;11.00;;;;;;;0.67;100.00;98626.95;87078;275;136894;-69
2024/01/15 01:34:57;;;;;;;11.40;10.10;;;;;;;0.78;100.00;98627.36;87279;278;23521;-71
2024/01/15 01:37:00;;;;;;;9.50;8.60;;;;;;;0.85;100.00;98621.30;87135;267;137716;-69
2024/01/15 01:39:02;;;;;;;10.90;9.80;;;;;;;0.82;100.00;98623.23;87507;271;25347;-70
2024/01/15 01:41:06;;;;;;;11.60;9.40;;;;;;;0.72;100.00;98626.30;87207;271;136187;-69
2024/01/15 01:43:10;;;;;;;10.20;9.20;;;;;;;0.60;100.00;98630.89;87526;267;24147;-70
2024/01/15 01:45:12;;;;;;;11.00;9.30;;;;;;;0.55;100.00;98630.38;87356;267;136221;-71
2024/01/15 01:47:14;;;;;;;9.70;8.10;;;;;;;0.52;100.00;98627.36;87215;271;22572;-72
2024/01/15 01:49:17;;;;;;;11.70;10.50;;;;;;;0.58;100.00;98622.22;87138;271;136447;-75
2024/01/15 01:51:20;;;;;;;10.60;9.20;;;;;;;0.64;100.00;98618.21;87257;267;22638;-70
2024/01/15 01:53:23;;;;;;;10.10;8.80;;;;;;;0.68;100.00;98621.08;87182;271;136517;-70
2024/01/15 01:55:28;;;;;;;9.70;8.80;;;;;;;0.65;100.00;98620.56;87257;267;22591;-72
2024/01/15 01:57:32;;;;;;;11.80;10.50;;;;;;;0.58;100.00;98620.57;87154;272;135878;-70
2024/01/15 01:59:35;;;;;;;11.30;10.20;;;;;;;0.52;100.00;98618.02;87239;272;25211;-71
2024/01/15 02:01:38;;;;;;;10.60;9.30;;;;;;;0.49;100.00;98621.34;87025;268;136515;-69
2024/01/15 02:03:40;;;;;;;11.00;8.80;;;;;;;0.47;100.00;98618.86;87349;274;24013;-73
2024/01/15 02:05:44;;;;;;;11.90;9.60;;;;;;;0.49;100.00;98620.67;87316;272;136659;-71
2024/01/15 02:07:46;;;;;;;10.60;8.70;;;;;;;0.59;100.00;98622.41;87238;279;22558;-73
2024/01/15 02:09:49;;;;;;;11.70;10.40;;;;;;;0.65;100.00;98622.14;86877;273;136521;-71
2024/01/15 02:11:51;;;;;;;10.90;9.10;;;;;;;0.65;100.00;98621.09;87238;264;23920;-71
2024/01/15 02:13:54;;;;;;;10.40;9.30;;;;;;;0.60;100.00;98619.72;87109;271;136215;-70
2024/01/15 02:15:56;;;;;;;11.10;9.10;;;;;;;0.55;100.00;98623.86;87392;271;23785;-71
2024/01/15 02:17:59;;;;;;;12.80;10.20;;;;;;;0.51;100.00;98626.39;87118;279;137190;-71
2024/01/15 02:20:02;;;;;;;12.00;10.00;;;;;;;0.48;100.00;98628.52;87239;268;25142;-74
2024/01/15 02:22:04;;;;;;;13.00;10.00;;;;;;;0.51;100.00;98627.44;87096;268;22562;-69
2024/01/15 02:24:06;;;;;;;15.10;10.30;;;;;;;0.59;100.00;98628.17;86997;268;137276;-69
2024/01/15 02:26:09;;;;;;;11.60;9.30;;;;;;;0.66;100.00;98622.95;87275;279;22619;-73
2024/01/15 02:28:16;;;;;;;11.00;7.90;;;;;;;0.63;100.00;98621.65;87105;279;136133;-71
2024/01/15 02:30:18;;;;;;;11.90;10.00;;;;;;;0.56;100.00;98625.20;87016;268;22639;-69
2024/01/15 02:32:20;;;;;;;12.30;10.00;;;;;;;0.50;100.00;98625.08;87207;272;136372;-70
2024/01/15 02:34:22;;;;;;;9.50;8.50;;;;;;;0.45;100.00;98627.73;87103;272;22543;-70
2024/01/15 02:36:24;;;;;;;13.00;8.80;;;;;;;0.40;100.00;98627.41;87038;280;135874;-70
2024/01/15 02:38:27;;;;;;;10.10;9.00;;;;;;;0.46;100.00;98633.31;87134;268;25085;-71
2024/01/15 02:40:29;;;;;;;10.90;9.30;;;;;;;0.53;100.00;98629.98;87058;279;137022;-69
2024/01/15 02:42:31;;;;;;;12.00;9.90;;;;;;;0.57;100.00;98632.50;87290;280;24065;-71
2024/01/15 02:44:33;;;;;;;11.30;9.50;;;;;;;0.55;100.00;98628.80;87117;268;136222;-68
2024/01/15 02:46:35;;;;;;;12.00;9.40;;;;;;;0.47;100.00;98631.87;87238;267;22562;-72
2024/01/15 02:48:37;;;;;;;11.40;9.60;;;;;;;0.45;100.00;98633.08;87102;275;136288;-69
2024/01/15 02:50:39;;;;;;;12.20;9.90;;;;;;;0.41;100.00;98630.98;87280;275;22652;-70
2024/01/15 02:52:42;;;;;;;10.00;9.00;;;;;;;0.44;100.00;98634.29;87132;268;136813;-69
2024/01/15 02:54:43;;;;;;;14.90;8.60;;;;;;;0.52;100.00;98632.22;87381;267;22567;-72
2024/01/15 02:56:45;;;;;;;9.30;8.40;;;;;;;0.61;100.00;98631.15;87014;269;137599;-70
2024/01/15 02:58:47;;;;;;;8.90;8.00;;;;;;;0.61;100.00;98634.83;87109;271;22578;-70
2024/01/15 03:00:49;;;;;;;10.60;9.50;;;;;;;0.54;100.00;98635.84;87189;271;137151;-71
2024/01/15 03:02:51;;;;;;;10.00;9.00;;;;;;;0.48;100.00;98635.59;87154;272;25175;-70
2024/01/15 03:04:53;;;;;;;11.20;10.00;;;;;;;0.44;100.00;98632.96;87186;268;137491;-72
2024/01/15 03:06:54;;;;;;;11.60;9.90;;;;;;;0.40;100.00;98627.57;87258;271;24071;-71
2024/01/15 03:08:56;;;;;;;10.80;9.10;;;;;;;0.43;100.00;98626.72;87010;263;136570;-71
2024/01/15 03:10:58;;;;;;;10.90;9.10;;;;;;;0.51;100.00;98624.81;87036;264;24100;-70
2024/01/15 03:13:00;;;;;;;10.00;9.00;;;;;;;0.57;100.00;98624.65;87098;268;136729;-70
2024/01/15 03:15:03;;;;;;;10.00;8.70;;;;;;;0.58;100.00;98620.70;87270;270;22559;-71
2024/01/15 03:17:05;;;;;;;12.70;10.20;;;;;;;0.53;100.00;98624.11;87206;271;136050;-70
2024/01/15 03:19:07;;;;;;;10.00;8.10;;;;;;;0.46;100.00;98626.03;87272;271;26271;-70
2024/01/15 03:21:09;;;;;;;11.80;10.00;;;;;;;0.37;100.00;98625.94;87158;267;136048;-73
2024/01/15 03:23:11;;;;;;;10.40;9.10;;;;;;;0.32;100.00;98623.52;87327;271;22558;-70
2024/01/15 03:25:12;;;;;;;12.70;9.80;;;;;;;0.34;100.00;98619.88;87205;279;137364;-72
2024/01/15 03:27:14;;;;;;;9.90;8.60;;;;;;;0.40;100.00;98622.82;87364;271;25130;-69
2024/01/15 03:29:16;;;;;;;13.00;9.40;;;;;;;0.52;100.00;98617.90;87146;271;136387;-75
2024/01/15 03:31:18;;;;;;;10.80;8.90;;;;;;;0.57;100.00;98619.27;87215;272;25220;-71
2024/01/15 03:33:20;;;;;;;13.20;9.00;;;;;;;0.52;100.00;98622.39;87258;263;136361;-71
2024/01/15 03:35:23;;;;;;;11.20;9.70;;;;;;;0.45;100.00;98619.25;87410;274;22576;-71
2024/01/15 03:37:25;;;;;;;12.20;9.60;;;;;;;0.36;100.00;98618.69;87248;268;136254;-69
2024/01/15 03:39:27;;;;;;;12.60;10.10;;;;;;;0.34;100.00;98620.59;87260;268;24116;-69
2024/01/15 03:41:29;;;;;;;12.90;9.40;;;;;;;0.39;100.00;98617.10;87223;263;136806;-71
2024/01/15 03:43:34;;;;;;;10.60;9.50;;;;;;;0.45;100.00;98615.55;87322;267;22568;-69
2024/01/15 03:45:36;;;;;;;10.10;8.80;;;;;;;0.49;100.00;98619.63;87049;271;137429;-70
2024/01/15 03:47:38;;;;;;;9.70;8.80;;;;;;;0.39;100.00;98621.55;87184;271;24036;-71
2024/01/15 03:49:40;;;;;;;14.60;10.50;;;;;;;0.34;100.00;98624.90;87204;278;135956;-69
2024/01/15 03:51:42;;;;;;;14.40;10.50;;;;;;;0.30;100.00;98619.42;87311;271;23736;-72
2024/01/15 03:53:43;;;;;;;12.70;10.40;;;;;;;0.25;100.00;98623.92;87124;272;136344;-71
2024/01/15 03:55:45;;;;;;;11.40;9.10;;;;;;;0.28;100.00;98626.08;87194;275;22671;-71
2024/01/15 03:57:47;;;;;;;12.70;10.70;;;;;;;0.34;100.00;98629.96;87199;272;138989;-71
2024/01/15 03:59:49;;;;;;;11.10;9.10;;;;;;;0.34;100.00;98627.83;87257;275;24017;-71
2024/01/15 04:01:52;;;;;;;13.70;10.20;;;;;;;0.28;100.00;98628.69;87132;272;135768;-70
2024/01/15 04:03:54;;;;;;;14.40;11.20;;;;;;;0.20;100.00;98624.63;87281;276;22667;-69
2024/01/15 04:05:57;;;;;;;12.80;10.10;;;;;;;0.15;100.00;98628.14;87474;272;136084;-71
2024/01/15 04:07:59;;;;;;;14.60;11.40;;;;;;;0.08;100.00;98622.92;87259;272;24530;-69
2024/01/15 04:10:01;;;;;;;14.30;9.50;;;;;;;0.11;100.00;98622.30;87360;278;136973;-68
2024/01/15 04:12:05;;;;;;;10.80;9.20;;;;;;;0.17;100.00;98623.19;87303;279;137262;-70
2024/01/15 04:14:06;;;;;;;26.70;13.20;;;;;;;0.21;100.00;98624.39;87317;267;24052;-70
2024/01/15 04:16:08;;;;;;;12.10;10.50;;;;;;;0.17;100.00;98630.69;87106;271;137538;-74
2024/01/15 04:18:10;;;;;;;15.00;10.70;;;;;;;0.10;100.00;98636.35;87062;273;22574;-72
2024/01/15 04:20:12;;;;;;;13.90;10.90;;;;;;;0.06;100.00;98633.85;87092;279;137948;-71
2024/01/15 04:22:14;;;;;;;16.00;10.60;;;;;;;0.02;100.00;98629.08;87140;275;22563;-70
2024/01/15 04:24:17;;;;;;;15.80;10.90;;;;;;;0.07;100.00;98630.09;87010;271;137027;-71
2024/01/15 04:26:19;;;;;;;15.00;10.10;;;;;;;0.13;100.00;98632.55;87224;279;22567;-71
2024/01/15 04:28:21;;;;;;;13.10;10.60;;;;;;;0.09;100.00;98630.73;87099;279;138212;-69
2024/01/15 04:30:23;;;;;;;15.20;11.50;;;;;;;0.04;100.00;98630.55;87376;279;25144;-72
2024/01/15 04:32:25;;;;;;;13.90;10.30;;;;;;;-0.03;100.00;98632.98;87313;271;140666;-69
2024/01/15 04:34:27;;;;;;;13.20;11.30;;;;;;;-0.08;100.00;98631.52;87365;271;22575;-70
2024/01/15 04:36:29;;;;;;;15.40;10.40;;;;;;;-0.14;100.00;98630.86;87220;267;136569;-71
2024/01/15 04:38:33;;;;;;;14.90;10.90;;;;;;;-0.14;100.00;98635.77;87295;271;22579;-69
2024/01/15 04:40:35;;;;;;;19.90;10.40;;;;;;;-0.06;100.00;98640.17;87355;271;137072;-70
2024/01/15 04:42:39;;;;;;;13.00;10.00;;;;;;;-0.01;100.00;98644.70;87348;267;24007;-70
2024/01/15 04:44:42;;;;;;;15.50;10.90;;;;;;;-0.03;100.00;98648.77;87201;271;136508;-71
2024/01/15 04:46:44;;;;;;;14.20;11.20;;;;;;;-0.07;100.00;98652.90;87207;273;24055;-72
2024/01/15 04:48:46;;;;;;;16.90;11.70;;;;;;;-0.15;100.00;98660.71;87184;272;138043;-70
2024/01/15 04:50:48;;;;;;;12.30;10.40;;;;;;;-0.18;100.00;98658.06;87265;272;22570;-69
2024/01/15 04:52:50;;;;;;;16.50;11.70;;;;;;;-0.20;100.00;98648.72;87122;280;136579;-70
2024/01/15 04:54:54;;;;;;;16.50;12.10;;;;;;;-0.14;100.00;98652.18;87323;279;23047;-68
2024/01/15 04:56:59;;;;;;;15.10;10.80;;;;;;;-0.07;100.00;98651.40;87126;279;137179;-69
2024/01/15 04:59:03;;;;;;;12.30;10.70;;;;;;;-0.05;100.00;98657.00;87213;269;25233;-68
2024/01/15 05:01:05;;;;;;;14.50;10.80;;;;;;;-0.09;100.00;98655.52;87140;271;136527;-69
2024/01/15 05:03:07;;;;;;;16.10;11.90;;;;;;;-0.13;100.00;98655.38;87006;276;22565;-71
2024/01/15 05:05:09;;;;;;;18.10;13.20;;;;;;;-0.16;100.00;98654.52;87070;275;136303;-69
2024/01/15 05:07:11;;;;;;;15.40;12.30;;;;;;;-0.18;100.00;98653.96;87338;267;22580;-69
2024/01/15 05:09:13;;;;;;;17.40;12.10;;;;;;;-0.17;100.00;98655.35;87017;279;146042;-70
2024/01/15 05:11:15;;;;;;;13.10;11.20;;;;;;;-0.10;100.00;98657.74;87238;271;22849;-70
2024/01/15 05:13:17;;;;;;;15.00;10.70;;;;;;;-0.04;100.00;98656.67;87177;279;137239;-69
2024/01/15 05:15:18;;;;;;;14.70;10.30;;;;;;;-0.01;100.00;98659.02;87167;271;23597;-71
2024/01/15 05:17:20;;;;;;;17.40;12.50;;;;;;;-0.05;100.00;98654.41;87056;271;136395;-70
2024/01/15 05:19:24;;;;;;;14.30;11.60;;;;;;;-0.11;100.00;98650.61;87154;268;23073;-68
2024/01/15 05:21:26;;;;;;;16.00;11.50;;;;;;;-0.13;100.00;98655.09;87120;271;137941;-70
2024/01/15 05:23:31;;;;;;;14.50;10.90;;;;;;;-0.13;100.00;98652.75;87158;267;24148;-73
2024/01/15 05:25:33;;;;;;;16.40;11.50;;;;;;;-0.14;100.00;98650.33;87065;271;136674;-70
2024/01/15 05:27:35;;;;;;;15.90;12.00;;;;;;;-0.20;100.00;98647.55;87218;271;23003;-71
2024/01/15 05:29:37;;;;;;;15.20;12.10;;;;;;;-0.18;100.00;98650.89;87124;267;138101;-71
2024/01/15 05:31:39;;;;;;;16.70;11.70;;;;;;;-0.09;100.00;98647.11;87191;270;22530;-71
2024/01/15 05:33:41;;;;;;;15.30;10.70;;;;;;;-0.02;100.00;98647.58;87096;279;138534;-70
2024/01/15 05:35:43;;;;;;;14.70;11.70;;;;;;;-0.05;100.00;98644.23;87083;268;22570;-69
2024/01/15 05:37:46;;;;;;;17.50;11.20;;;;;;;-0.08;100.00;98644.10;87006;273;137391;-69
2024/01/15 05:39:48;;;;;;;16.80;12.00;;;;;;;-0.14;100.00;98648.51;87288;279;22508;-71
2024/01/15 05:41:50;;;;;;;16.50;12.50;;;;;;;-0.17;100.00;98651.08;87120;267;137095;-71
2024/01/15 05:43:53;;;;;;;16.00;12.50;;;;;;;-0.21;100.00;98648.53;87213;275;22587;-71
2024/01/15 05:45:55;;;;;;;14.10;10.40;;;;;;;-0.21;100.00;98651.64;87216;274;137722;-72
2024/01/15 05:47:57;;;;;;;16.40;10.70;;;;;;;-0.23;100.00;98651.84;87347;278;24027;-70
2024/01/15 05:50:01;;;;;;;17.70;11.90;;;;;;;-0.14;100.00;98652.55;87015;275;138719;-69
2024/01/15 05:52:04;;;;;;;14.60;11.00;;;;;;;-0.07;100.00;98657.23;87130;267;137546;-68
2024/01/15 05:54:07;;;;;;;18.00;11.70;;;;;;;-0.07;100.00;98662.77;87458;271;22802;-70
2024/01/15 05:56:10;;;;;;;14.50;11.30;;;;;;;-0.12;100.00;98658.63;87365;278;138162;-70
2024/01/15 05:58:12;;;;;;;16.60;11.90;;;;;;;-0.15;100.00;98661.05;87504;278;22584;-72
2024/01/15 06:00:14;;;;;;;15.30;11.30;;;;;;;-0.19;100.00;98661.39;87177;271;136900;-71
2024/01/15 06:02:17;;;;;;;16.50;11.60;;;;;;;-0.21;100.00;98667.06;87229;272;23653;-70
2024/01/15 06:04:18;;;;;;;15.60;11.50;;;;;;;-0.24;100.00;98667.14;87207;271;136915;-68
2024/01/15 06:06:21;;;;;;;13.40;10.40;;;;;;;-0.23;100.00;98668.59;87203;263;23749;-73
2024/01/15 06:08:22;;;;;;;15.40;10.00;;;;;;;-0.10;100.00;98667.01;87185;279;137687;-71
2024/01/15 06:10:24;;;;;;;13.10;9.80;;;;;;;-0.01;100.00;98663.55;87161;279;24098;-71
2024/01/15 06:12:27;;;;;;;16.50;11.70;;;;;;;0.00;100.00;98663.46;87301;271;136398;-68
2024/01/15 06:14:29;;;;;;;16.40;11.80;;;;;;;-0.04;100.00;98659.82;87531;267;22715;-69
2024/01/15 06:16:31;;;;;;;13.20;10.30;;;;;;;-0.06;100.00;98668.86;87138;280;137477;-71
2024/01/15 06:18:33;;;;;;;14.70;10.80;;;;;;;-0.09;100.00;98666.52;87371;271;24061;-70
2024/01/15 06:20:35;;;;;;;15.60;10.80;;;;;;;-0.13;100.00;98661.17;87257;278;138122;-68
2024/01/15 06:22:39;;;;;;;22.80;13.40;;;;;;;-0.14;100.00;98664.27;87348;274;25097;-69
2024/01/15 06:24:41;;;;;;;14.40;11.20;;;;;;;-0.07;100.00;98665.77;87374;278;137311;-70
2024/01/15 06:26:43;;;;;;;15.90;12.60;;;;;;;0.01;100.00;98669.79;87434;271;22619;-70
2024/01/15 06:28:46;;;;;;;15.20;10.80;;;;;;;0.02;100.00;98666.91;87209;278;136647;-68
2024/01/15 06:30:48;;;;;;;14.30;10.80;;;;;;;-0.05;100.00;98665.88;87413;267;22572;-68
2024/01/15 06:32:50;;;;;;;13.20;10.40;;;;;;;-0.10;100.00;98669.23;87263;271;137916;-74
2024/01/15 06:34:52;;;;;;;13.90;11.10;;;;;;;-0.13;100.00;98673.23;87180;276;22566;-68
2024/01/15 06:36:54;;;;;;;13.90;11.10;;;;;;;-0.15;100.00;98676.19;87219;278;136550;-69
2024/01/15 06:38:56;;;;;;;13.00;10.00;;;;;;;-0.17;100.00;98675.05;87337;278;25239;-71
2024/01/15 06:40:58;;;;;;;12.60;10.00;;;;;;;-0.12;100.00;98677.11;87187;271;138280;-69
2024/01/15 06:43:00;;;;;;;16.40;10.70;;;;;;;0.00;100.00;98676.55;87275;269;23998;-70
2024/01/15 06:45:04;;;;;;;16.80;11.50;;;;;;;0.09;100.00;98680.17;87203;267;136860;-73
2024/01/15 06:47:06;;;;;;;14.00;10.00;;;;;;;0.09;100.00;98682.47;89546;267;22558;-69
2024/01/15 06:49:08;;;;;;;12.70;9.90;;;;;;;0.03;100.00;98677.35;87149;266;136392;-70
2024/01/15 06:51:10;;;;;;;14.40;10.50;;;;;;;-0.01;100.00;98675.41;87208;269;22642;-69
2024/01/15 06:53:13;;;;;;;14.90;11.00;;;;;;;-0.06;100.00;98673.84;87240;270;136672;-69
2024/01/15 06:55:15;;;;;;;15.50;11.30;;;;;;;-0.05;100.00;98673.20;87339;282;23025;-70
2024/01/15 06:57:20;;;;;;;14.30;11.10;;;;;;;-0.07;100.00;98670.52;87267;278;136388;-77
2024/01/15 06:59:22;;;;;;;16.40;11.70;;;;;;;0.00;100.00;98671.81;87256;270;21515;-71
2024/01/15 07:01:24;;;;;;;15.70;10.40;;;;;;;0.08;100.00;98673.22;87167;278;136908;-69
2024/01/15 07:03:26;;;;;;;14.50;10.30;;;;;;;0.06;100.00;98666.48;86898;276;22715;-75
2024/01/15 07:05:30;;;;;;;14.90;11.40;;;;;;;0.03;100.00;98668.44;87376;267;137399;-73
2024/01/15 07:07:32;;;;;;;13.00;10.30;;;;;;;-0.02;100.00;98666.08;87136;275;23118;-75
2024/01/15 07:09:34;;;;;;;20.40;11.90;;;;;;;-0.04;100.00;98664.36;87044;270;136513;-73
2024/01/15 07:11:36;;;;;;;16.00;12.10;;;;;;;-0.05;100.00;98657.89;87215;270;22572;-71
2024/01/15 07:13:38;;;;;;;21.50;12.00;;;;;;;-0.06;100.00;98658.34;87174;271;136542;-74
2024/01/15 07:15:40;;;;;;;16.60;11.20;;;;;;;-0.02;100.00;98659.79;86981;279;24003;-68
2024/01/15 07:17:42;;;;;;;15.10;11.70;;;;;;;0.05;100.00;98660.98;86989;270;137340;-71
2024/01/15 07:19:44;;;;;;;15.50;11.80;;;;;;;0.10;100.00;98660.71;87327;271;22674;-76
2024/01/15 07:21:46;;;;;;;20.40;13.10;;;;;;;0.04;100.00;98656.20;87074;270;136425;-68
2024/01/15 07:23:49;;;;;;;18.60;11.80;;;;;;;-0.03;100.00;98651.83;87026;267;22891;-76
2024/01/15 07:25:51;;;;;;;16.70;11.90;;;;;;;-0.05;100.00;98653.01;86993;278;136525;-74
2024/01/15 07:27:54;;;;;;;16.30;12.20;;;;;;;-0.08;100.00;98647.50;87056;278;22641;-71
2024/01/15 07:29:56;;;;;;;17.50;12.50;;;;;;;-0.08;100.00;98647.67;87144;278;136304;-67
2024/01/15 07:32:02;;;;;;;18.50;12.10;;;;;;;-0.01;100.00;98643.62;87107;267;22569;-72
2024/01/15 07:34:05;;;;;;;21.60;13.20;;;;;;;0.11;100.00;98643.46;86896;271;22571;-74
2024/01/15 07:36:08;;;;;;;21.20;13.60;;;;;;;0.21;100.00;98645.39;86865;279;136331;-69
2024/01/15 07:38:11;;;;;;;17.60;12.20;;;;;;;0.20;100.00;98647.72;87064;270;22558;-73
2024/01/15 07:40:13;;;;;;;18.20;12.80;;;;;;;0.16;100.00;98642.73;86964;269;137837;-72
2024/01/15 07:42:16;;;;;;;17.40;12.20;;;;;;;0.13;100.00;98642.55;87196;263;22641;-71
2024/01/15 07:44:18;;;;;;;14.60;11.20;;;;;;;0.09;100.00;98640.31;87148;271;136382;-72
2024/01/15 07:46:20;;;;;;;15.50;12.30;;;;;;;0.08;100.00;98632.42;87190;277;25093;-72
2024/01/15 07:48:22;;;;;;;15.20;11.20;;;;;;;0.14;100.00;98633.70;87070;273;137054;-71
2024/01/15 07:50:25;;;;;;;17.50;12.90;;;;;;;0.28;100.00;98632.23;87275;267;22654;-75
2024/01/15 07:52:26;;;;;;;18.00;12.20;;;;;;;0.40;100.00;98629.72;86977;275;136777;-73
2024/01/15 07:54:28;;;;;;;16.10;11.90;;;;;;;0.46;100.00;98630.33;87111;275;22558;-71
2024/01/15 07:56:30;;;;;;;15.60;12.10;;;;;;;0.44;100.00;98630.96;87073;279;136274;-71
2024/01/15 07:58:32;;;;;;;18.30;13.40;;;;;;;0.41;100.00;98629.27;87116;278;24014;-72
2024/01/15 08:00:34;;;;;;;17.70;13.20;;;;;;;0.34;100.00;98628.73;87026;278;136910;-73
2024/01/15 08:02:36;;;;;;;16.30;11.40;;;;;;;0.32;100.00;98627.21;87136;278;22596;-72
2024/01/15 08:04:38;;;;;;;15.60;12.80;;;;;;;0.32;100.00;98626.34;86934;267;136694;-72
2024/01/15 08:06:41;;;;;;;17.50;12.10;;;;;;;0.42;100.00;98626.77;86939;272;25238;-72
2024/01/15 08:08:43;;;;;;;16.30;12.90;;;;;;;0.50;100.00;98622.22;87884;275;137219;-74
2024/01/15 08:10:45;;;;;;;15.70;12.00;;;;;;;0.50;100.00;98622.00;87038;271;22590;-72
2024/01/15 08:12:46;;;;;;;16.50;12.60;;;;;;;0.43;100.00;98625.05;86828;270;135817;-74
2024/01/15 08:14:48;;;;;;;18.50;13.20;;;;;;;0.36;100.00;98624.50;87159;277;22572;-75
2024/01/15 08:16:52;;;;;;;16.30;12.30;;;;;;;0.30;100.00;98619.04;86950;265;136977;-73
2024/01/15 08:18:54;;;;;;;17.50;13.40;;;;;;;0.31;100.00;98620.73;87091;271;22566;-72
2024/01/15 08:20:56;;;;;;;17.90;12.00;;;;;;;0.40;100.00;98620.79;87028;271;141171;-72
2024/01/15 08:22:58;;;;;;;17.30;12.80;;;;;;;0.49;100.00;98623.31;87133;274;22578;-71
2024/01/15 08:25:02;;;;;;;16.40;12.10;;;;;;;0.51;100.00;98622.05;86951;273;136167;-70
2024/01/15 08:27:04;;;;;;;16.60;12.50;;;;;;;0.47;100.00;98619.52;87182;274;22654;-72
2024/01/15 08:29:06;;;;;;;25.10;14.20;;;;;;;0.39;100.00;98622.45;87077;278;136194;-72
2024/01/15 08:31:09;;;;;;;18.40;13.80;;;;;;;0.35;100.00;98618.02;87124;271;22547;-72
2024/01/15 08:33:11;;;;;;;19.10;14.50;;;;;;;0.32;100.00;98622.48;86990;272;136485;-72
2024/01/15 08:35:23;;;;;;;20.80;12.50;;;;;;;0.35;100.00;98620.89;87198;271;23413;-71
2024/01/15 08:37:25;;;;;;;16.40;12.80;;;;;;;0.42;100.00;98621.77;87413;271;137197;-73
2024/01/15 08:39:27;;;;;;;15.90;11.90;;;;;;;0.51;100.00;98622.55;87450;267;22846;-72
2024/01/15 08:41:32;;;;;;;17.50;12.40;;;;;;;0.52;100.00;98627.52;87230;267;136633;-72
2024/01/15 08:43:36;;;;;;;16.50;11.70;;;;;;;0.48;100.00;98631.31;87255;271;22562;-73
2024/01/15 08:45:38;;;;;;;19.70;13.30;;;;;;;0.45;100.00;98637.08;87210;271;136554;-75
2024/01/15 08:47:40;;;;;;;20.40;14.80;;;;;;;0.45;100.00;98633.14;87190;267;23741;-74
2024/01/15 08:49:45;;;;;;;20.10;11.80;;;;;;;0.43;100.00;98630.58;87126;274;137004;-73
2024/01/15 08:51:47;;;;;;;18.00;12.80;;;;;;;0.48;100.00;98632.00;87341;267;24786;-73
2024/01/15 08:53:49;;;;;;;18.00;12.40;;;;;;;0.56;100.00;98625.00;86983;273;136728;-70
2024/01/15 08:55:51;;;;;;;18.40;14.20;;;;;;;0.57;100.00;98616.96;87118;265;26228;-72
2024/01/15 08:57:54;;;;;;;22.60;13.10;;;;;;;0.55;100.00;98616.89;87038;265;137488;-71
2024/01/15 08:59:56;;;;;;;18.80;11.80;;;;;;;0.51;100.00;98612.98;87232;275;24109;-68
2024/01/15 09:01:57;;;;;;;16.00;12.20;;;;;;;0.52;99.66;98610.73;87322;267;137800;-70
2024/01/15 09:03:59;;;;;;;13.00;10.70;;;;;;;0.51;98.97;98608.95;87150;271;22625;-71
2024/01/15 09:06:01;;;;;;;13.00;9.90;;;;;;;0.53;98.35;98606.19;86861;267;135702;-70
2024/01/15 09:08:04;;;;;;;15.20;10.40;;;;;;;0.60;97.61;98609.85;86981;274;138114;-70
2024/01/15 09:11:55;;;;;;;14.30;9.00;;;;;;;0.54;97.41;98610.92;85009;304;603245;-67
2024/01/15 09:13:57;;;;;;;11.80;10.10;;;;;;;0.53;97.57;98608.20;87117;271;135257;-68
2024/01/15 09:15:59;;;;;;;14.20;9.30;;;;;;;0.53;97.67;98609.27;86977;279;22562;-69
2024/01/15 09:18:02;;;;;;;15.40;11.50;;;;;;;0.55;97.49;98605.46;87085;279;136009;-68
2024/01/15 09:20:09;;;;;;;12.80;9.90;;;;;;;0.57;96.62;98600.74;86931;271;135891;-73
2024/01/15 09:22:18;;;;;;;15.00;10.40;;;;;;;0.55;95.68;98596.44;87672;271;22677;-69
2024/01/15 09:24:20;;;;;;;15.80;8.40;;;;;;;0.54;94.93;98591.85;87121;268;137099;-69
2024/01/15 09:26:29;;;;;;;12.60;8.80;;;;;;;0.56;94.37;98587.64;86819;270;437358;-68
2024/01/15 09:28:31;;;;;;;13.20;8.30;;;;;;;0.68;93.96;98586.44;86990;270;137307;-67